sensor_id;sensor_type;location;lat;lon;timestamp;pressure;altitude;pressure_sealevel;temperature;humidity
78373;BME280;67656;52.074;4.758;2023-09-19T00:01:48;100733.06;;;14.66;100.00
78373;BME280;67656;52.074;4.758;2023-09-19T00:07:05;100744.78;;;14.81;100.00
78373;BME280;67656;52.074;4.758;2023-09-19T00:12:33;100747.50;;;14.98;100.00
78373;BME280;67656;52.074;4.758;2023-09-19T00:17:55;100733.88;;;14.87;100.00
78373;BME280;67656;52.074;4.758;2023-09-19T00:23:18;100744.50;;;14.87;100.00
78373;BME280;67656;52.074;4.758;2023-09-19T00:28:36;100746.94;;;14.72;100.00
78373;BME280;67656;52.074;4.758;2023-09-19T00:34:05;100757.72;;;14.69;100.00
78373;BME280;67656;52.074;4.758;2023-09-19T00:44:20;100751.22;;;14.56;100.00
78373;BME280;67656;52.074;4.758;2023-09-19T00:49:32;100751.66;;;14.47;100.00
78373;BME280;67656;52.074;4.758;2023-09-19T00:54:51;100747.09;;;14.69;100.00
78373;BME280;67656;52.074;4.758;2023-09-19T01:00:22;100763.69;;;14.74;100.00
78373;BME280;67656;52.074;4.758;2023-09-19T01:05:37;100763.69;;;14.74;100.00
78373;BME280;67656;52.074;4.758;2023-09-19T01:10:59;100769.94;;;14.73;100.00
78373;BME280;67656;52.074;4.758;2023-09-19T01:32:41;100775.91;;;14.58;100.00
78373;BME280;67656;52.074;4.758;2023-09-19T01:37:47;100776.78;;;14.58;100.00
78373;BME280;67656;52.074;4.758;2023-09-19T01:43:17;100781.34;;;14.76;100.00
78373;BME280;67656;52.074;4.758;2023-09-19T01:53:58;100789.91;;;14.82;100.00
78373;BME280;67656;52.074;4.758;2023-09-19T01:59:28;100783.69;;;15.01;100.00
78373;BME280;67656;52.074;4.758;2023-09-19T02:04:37;100782.28;;;14.94;100.00
78373;BME280;67656;52.074;4.758;2023-09-19T02:09:43;100793.94;;;14.91;100.00
78373;BME280;67656;52.074;4.758;2023-09-19T02:14:44;100783.56;;;14.85;100.00
78373;BME280;67656;52.074;4.758;2023-09-19T02:19:52;100784.94;;;14.94;100.00
78373;BME280;67656;52.074;4.758;2023-09-19T02:24:56;100783.69;;;15.01;100.00
78373;BME280;67656;52.074;4.758;2023-09-19T02:29:59;100786.88;;;14.90;100.00
78373;BME280;67656;52.074;4.758;2023-09-19T02:35:00;100790.34;;;14.92;100.00
78373;BME280;67656;52.074;4.758;2023-09-19T02:40:05;100789.69;;;14.87;100.00
78373;BME280;67656;52.074;4.758;2023-09-19T02:45:07;100781.72;;;14.87;100.00
78373;BME280;67656;52.074;4.758;2023-09-19T02:50:08;100791.84;;;14.98;100.00
78373;BME280;67656;52.074;4.758;2023-09-19T02:55:18;100772.22;;;15.00;100.00
78373;BME280;67656;52.074;4.758;2023-09-19T03:00:29;100774.28;;;15.13;100.00
78373;BME280;67656;52.074;4.758;2023-09-19T03:05:30;100781.25;;;15.15;100.00
78373;BME280;67656;52.074;4.758;2023-09-19T03:10:30;100781.19;;;15.17;100.00
78373;BME280;67656;52.074;4.758;2023-09-19T03:15:32;100790.50;;;15.26;100.00
78373;BME280;67656;52.074;4.758;2023-09-19T03:20:34;100791.22;;;15.29;100.00
78373;BME280;67656;52.074;4.758;2023-09-19T03:25:35;100782.41;;;15.10;100.00
78373;BME280;67656;52.074;4.758;2023-09-19T03:30:39;100787.34;;;15.17;100.00
78373;BME280;67656;52.074;4.758;2023-09-19T03:35:52;100784.13;;;15.11;100.00
78373;BME280;67656;52.074;4.758;2023-09-19T03:40:55;100781.91;;;15.01;100.00
78373;BME280;67656;52.074;4.758;2023-09-19T03:46:01;100796.50;;;15.12;100.00
78373;BME280;67656;52.074;4.758;2023-09-19T03:51:06;100805.38;;;15.11;100.00
78373;BME280;67656;52.074;4.758;2023-09-19T03:56:07;100802.25;;;15.02;100.00
78373;BME280;67656;52.074;4.758;2023-09-19T04:01:10;100812.88;;;14.83;100.00
78373;BME280;67656;52.074;4.758;2023-09-19T04:06:16;100804.25;;;14.78;100.00
78373;BME280;67656;52.074;4.758;2023-09-19T04:11:17;100828.50;;;14.70;100.00
78373;BME280;67656;52.074;4.758;2023-09-19T04:16:20;100829.38;;;14.71;100.00
78373;BME280;67656;52.074;4.758;2023-09-19T04:21:32;100827.16;;;14.60;100.00
78373;BME280;67656;52.074;4.758;2023-09-19T04:26:40;100832.56;;;14.58;100.00
78373;BME280;67656;52.074;4.758;2023-09-19T04:31:44;100838.38;;;14.67;100.00
78373;BME280;67656;52.074;4.758;2023-09-19T04:36:48;100838.47;;;14.65;100.00
78373;BME280;67656;52.074;4.758;2023-09-19T04:41:51;100842.19;;;14.61;100.00
78373;BME280;67656;52.074;4.758;2023-09-19T04:46:57;100841.34;;;14.61;100.00
78373;BME280;67656;52.074;4.758;2023-09-19T04:52:06;100846.66;;;14.61;100.00
78373;BME280;67656;52.074;4.758;2023-09-19T04:57:07;100852.00;;;14.59;100.00
78373;BME280;67656;52.074;4.758;2023-09-19T05:02:07;100855.22;;;14.67;100.00
78373;BME280;67656;52.074;4.758;2023-09-19T05:07:17;100856.94;;;14.68;100.00
78373;BME280;67656;52.074;4.758;2023-09-19T05:12:29;100859.59;;;14.68;100.00
78373;BME280;67656;52.074;4.758;2023-09-19T05:18:29;100851.28;;;14.76;100.00
78373;BME280;67656;52.074;4.758;2023-09-19T05:23:34;100845.91;;;14.78;100.00
78373;BME280;67656;52.074;4.758;2023-09-19T05:40:55;100850.09;;;15.02;100.00
78373;BME280;67656;52.074;4.758;2023-09-19T05:46:09;100854.88;;;15.13;100.00
78373;BME280;67656;52.074;4.758;2023-09-19T05:51:23;100862.72;;;14.97;100.00
78373;BME280;67656;52.074;4.758;2023-09-19T05:56:27;100869.84;;;14.97;100.00
78373;BME280;67656;52.074;4.758;2023-09-19T06:01:32;100867.19;;;14.97;100.00
78373;BME280;67656;52.074;4.758;2023-09-19T06:06:38;100872.16;;;15.04;100.00
78373;BME280;67656;52.074;4.758;2023-09-19T06:11:41;100872.91;;;15.26;100.00
78373;BME280;67656;52.074;4.758;2023-09-19T06:16:50;100878.63;;;15.18;100.00
78373;BME280;67656;52.074;4.758;2023-09-19T06:21:57;100884.56;;;15.23;100.00
78373;BME280;67656;52.074;4.758;2023-09-19T06:32:41;100874.38;;;15.33;100.00
78373;BME280;67656;52.074;4.758;2023-09-19T06:37:45;100888.69;;;15.30;100.00
78373;BME280;67656;52.074;4.758;2023-09-19T06:43:06;100897.75;;;15.44;100.00
78373;BME280;67656;52.074;4.758;2023-09-19T06:49:05;100885.44;;;15.43;100.00
78373;BME280;67656;52.074;4.758;2023-09-19T06:55:03;100893.59;;;15.57;100.00
78373;BME280;67656;52.074;4.758;2023-09-19T07:05:35;100885.97;;;15.69;100.00
78373;BME280;67656;52.074;4.758;2023-09-19T07:10:40;100886.75;;;16.07;100.00
78373;BME280;67656;52.074;4.758;2023-09-19T07:21:49;100898.25;;;16.08;100.00
78373;BME280;67656;52.074;4.758;2023-09-19T07:33:13;100909.69;;;16.27;100.00
78373;BME280;67656;52.074;4.758;2023-09-19T07:38:31;100894.66;;;16.44;100.00
78373;BME280;67656;52.074;4.758;2023-09-19T07:55:51;100913.66;;;16.71;100.00
78373;BME280;67656;52.074;4.758;2023-09-19T08:06:51;100894.97;;;17.55;100.00
78373;BME280;67656;52.074;4.758;2023-09-19T08:18:11;100881.56;;;17.24;100.00
78373;BME280;67656;52.074;4.758;2023-09-19T08:41:07;100870.13;;;17.85;100.00
78373;BME280;67656;52.074;4.758;2023-09-19T08:46:52;100874.13;;;17.29;100.00
78373;BME280;67656;52.074;4.758;2023-09-19T08:52:59;100886.44;;;17.48;100.00
78373;BME280;67656;52.074;4.758;2023-09-19T08:58:04;100875.44;;;17.38;100.00
78373;BME280;67656;52.074;4.758;2023-09-19T09:03:18;100873.88;;;17.66;100.00
78373;BME280;67656;52.074;4.758;2023-09-19T09:08:31;100874.22;;;17.76;100.00
78373;BME280;67656;52.074;4.758;2023-09-19T09:13:36;100880.22;;;17.79;100.00
78373;BME280;67656;52.074;4.758;2023-09-19T09:18:44;100871.81;;;17.55;100.00
78373;BME280;67656;52.074;4.758;2023-09-19T09:23:49;100877.78;;;17.91;100.00
78373;BME280;67656;52.074;4.758;2023-09-19T09:28:58;100860.19;;;18.48;100.00
78373;BME280;67656;52.074;4.758;2023-09-19T09:34:02;100861.97;;;18.18;100.00
78373;BME280;67656;52.074;4.758;2023-09-19T09:44:17;100863.66;;;17.89;100.00
78373;BME280;67656;52.074;4.758;2023-09-19T09:49:25;100855.19;;;17.96;100.00
78373;BME280;67656;52.074;4.758;2023-09-19T09:54:33;100862.47;;;18.39;100.00
78373;BME280;67656;52.074;4.758;2023-09-19T10:00:13;100862.31;;;18.71;100.00
78373;BME280;67656;52.074;4.758;2023-09-19T10:05:24;100855.97;;;18.29;100.00
78373;BME280;67656;52.074;4.758;2023-09-19T10:10:36;100843.63;;;18.57;100.00
78373;BME280;67656;52.074;4.758;2023-09-19T10:15:37;100833.66;;;19.17;100.00
78373;BME280;67656;52.074;4.758;2023-09-19T10:20:39;100827.75;;;18.68;100.00
78373;BME280;67656;52.074;4.758;2023-09-19T10:25:41;100820.13;;;18.62;100.00
78373;BME280;67656;52.074;4.758;2023-09-19T10:30:52;100813.34;;;18.71;100.00
78373;BME280;67656;52.074;4.758;2023-09-19T10:36:05;100832.91;;;19.00;100.00
78373;BME280;67656;52.074;4.758;2023-09-19T10:41:12;100830.94;;;19.31;100.00
78373;BME280;67656;52.074;4.758;2023-09-19T10:46:20;100805.53;;;19.24;100.00
78373;BME280;67656;52.074;4.758;2023-09-19T10:51:24;100808.16;;;19.39;100.00
78373;BME280;67656;52.074;4.758;2023-09-19T10:56:36;100827.72;;;19.12;100.00
78373;BME280;67656;52.074;4.758;2023-09-19T11:01:47;100799.47;;;18.93;100.00
78373;BME280;67656;52.074;4.758;2023-09-19T11:07:30;100798.38;;;19.52;100.00
78373;BME280;67656;52.074;4.758;2023-09-19T11:24:36;100791.19;;;19.25;100.00
78373;BME280;67656;52.074;4.758;2023-09-19T11:41:37;100769.19;;;19.34;100.00
78373;BME280;67656;52.074;4.758;2023-09-19T11:47:18;100762.41;;;19.56;100.00
78373;BME280;67656;52.074;4.758;2023-09-19T11:52:51;100775.41;;;19.08;100.00
78373;BME280;67656;52.074;4.758;2023-09-19T11:57:56;100780.09;;;18.90;100.00
78373;BME280;67656;52.074;4.758;2023-09-19T12:03:15;100787.56;;;18.70;100.00
78373;BME280;67656;52.074;4.758;2023-09-19T12:08:16;100781.91;;;18.89;100.00
78373;BME280;67656;52.074;4.758;2023-09-19T12:13:34;100775.59;;;19.05;100.00
78373;BME280;67656;52.074;4.758;2023-09-19T12:18:41;100772.97;;;19.17;100.00
78373;BME280;67656;52.074;4.758;2023-09-19T12:24:14;100773.03;;;19.30;100.00
78373;BME280;67656;52.074;4.758;2023-09-19T12:29:28;100775.84;;;19.42;100.00
78373;BME280;67656;52.074;4.758;2023-09-19T12:34:32;100779.16;;;19.32;100.00
78373;BME280;67656;52.074;4.758;2023-09-19T12:40:03;100768.66;;;19.42;100.00
78373;BME280;67656;52.074;4.758;2023-09-19T12:45:32;100764.97;;;19.58;100.00
78373;BME280;67656;52.074;4.758;2023-09-19T12:51:10;100772.34;;;19.54;100.00
78373;BME280;67656;52.074;4.758;2023-09-19T12:56:16;100757.78;;;20.24;100.00
78373;BME280;67656;52.074;4.758;2023-09-19T13:01:33;100752.63;;;20.34;100.00
78373;BME280;67656;52.074;4.758;2023-09-19T13:06:40;100762.28;;;20.11;100.00
78373;BME280;67656;52.074;4.758;2023-09-19T13:17:34;100765.03;;;19.43;100.00
78373;BME280;67656;52.074;4.758;2023-09-19T13:22:45;100784.97;;;19.39;100.00
78373;BME280;67656;52.074;4.758;2023-09-19T13:27:51;100760.75;;;19.41;100.00
78373;BME280;67656;52.074;4.758;2023-09-19T13:33:03;100767.06;;;19.40;100.00
78373;BME280;67656;52.074;4.758;2023-09-19T13:38:08;100750.75;;;19.70;100.00
78373;BME280;67656;52.074;4.758;2023-09-19T13:43:22;100749.53;;;19.48;100.00
78373;BME280;67656;52.074;4.758;2023-09-19T13:48:23;100762.44;;;19.69;100.00
78373;BME280;67656;52.074;4.758;2023-09-19T13:53:26;100780.41;;;19.27;100.00
78373;BME280;67656;52.074;4.758;2023-09-19T13:58:29;100777.16;;;18.94;100.00
78373;BME280;67656;52.074;4.758;2023-09-19T14:03:33;100769.53;;;19.15;100.00
78373;BME280;67656;52.074;4.758;2023-09-19T14:08:36;100766.47;;;19.22;100.00
78373;BME280;67656;52.074;4.758;2023-09-19T14:13:43;100763.94;;;19.06;100.00
78373;BME280;67656;52.074;4.758;2023-09-19T14:18:45;100764.88;;;19.19;100.00
78373;BME280;67656;52.074;4.758;2023-09-19T14:29:15;100808.53;;;17.88;100.00
78373;BME280;67656;52.074;4.758;2023-09-19T14:34:29;100813.06;;;17.71;100.00
78373;BME280;67656;52.074;4.758;2023-09-19T14:39:37;100793.63;;;17.69;100.00
78373;BME280;67656;52.074;4.758;2023-09-19T14:44:37;100789.16;;;18.00;100.00
78373;BME280;67656;52.074;4.758;2023-09-19T14:49:49;100777.16;;;18.22;100.00
78373;BME280;67656;52.074;4.758;2023-09-19T14:55:19;100763.91;;;18.49;100.00
78373;BME280;67656;52.074;4.758;2023-09-19T15:00:28;100760.72;;;18.71;100.00
78373;BME280;67656;52.074;4.758;2023-09-19T15:05:29;100760.34;;;18.78;100.00
78373;BME280;67656;52.074;4.758;2023-09-19T15:10:30;100745.44;;;18.73;100.00
78373;BME280;67656;52.074;4.758;2023-09-19T15:15:32;100748.59;;;18.80;100.00
78373;BME280;67656;52.074;4.758;2023-09-19T15:20:36;100760.16;;;18.81;100.00
78373;BME280;67656;52.074;4.758;2023-09-19T15:25:57;100776.75;;;18.71;100.00
78373;BME280;67656;52.074;4.758;2023-09-19T15:31:01;100762.59;;;18.98;100.00
78373;BME280;67656;52.074;4.758;2023-09-19T15:36:14;100765.41;;;18.97;100.00
78373;BME280;67656;52.074;4.758;2023-09-19T15:41:24;100753.75;;;18.98;100.00
78373;BME280;67656;52.074;4.758;2023-09-19T15:46:25;100757.25;;;18.98;100.00
78373;BME280;67656;52.074;4.758;2023-09-19T15:51:28;100772.56;;;18.82;100.00
78373;BME280;67656;52.074;4.758;2023-09-19T15:56:29;100790.72;;;18.48;100.00
78373;BME280;67656;52.074;4.758;2023-09-19T16:01:32;100811.03;;;17.91;100.00
78373;BME280;67656;52.074;4.758;2023-09-19T16:07:04;100819.63;;;17.65;100.00
78373;BME280;67656;52.074;4.758;2023-09-19T16:12:34;100812.78;;;17.29;100.00
78373;BME280;67656;52.074;4.758;2023-09-19T16:17:37;100800.03;;;17.50;100.00
78373;BME280;67656;52.074;4.758;2023-09-19T16:22:45;100799.47;;;17.76;100.00
78373;BME280;67656;52.074;4.758;2023-09-19T16:27:57;100798.75;;;17.72;100.00
78373;BME280;67656;52.074;4.758;2023-09-19T16:45:24;100800.97;;;17.49;100.00
78373;BME280;67656;52.074;4.758;2023-09-19T17:03:08;100812.75;;;17.45;100.00
78373;BME280;67656;52.074;4.758;2023-09-19T17:08:25;100814.88;;;17.24;100.00
78373;BME280;67656;52.074;4.758;2023-09-19T17:13:52;100800.13;;;17.33;100.00
78373;BME280;67656;52.074;4.758;2023-09-19T17:19:16;100809.88;;;17.18;100.00
78373;BME280;67656;52.074;4.758;2023-09-19T17:36:28;100823.63;;;16.94;100.00
78373;BME280;67656;52.074;4.758;2023-09-19T17:41:29;100809.59;;;16.91;100.00
78373;BME280;67656;52.074;4.758;2023-09-19T17:46:47;100814.44;;;17.00;100.00
78373;BME280;67656;52.074;4.758;2023-09-19T17:52:21;100843.72;;;16.84;100.00
78373;BME280;67656;52.074;4.758;2023-09-19T17:57:22;100836.66;;;16.83;100.00
78373;BME280;67656;52.074;4.758;2023-09-19T18:02:26;100831.22;;;16.84;100.00
78373;BME280;67656;52.074;4.758;2023-09-19T18:07:30;100831.31;;;16.67;100.00
78373;BME280;67656;52.074;4.758;2023-09-19T18:12:34;100835.28;;;16.76;100.00
78373;BME280;67656;52.074;4.758;2023-09-19T18:17:46;100842.50;;;16.73;100.00
78373;BME280;67656;52.074;4.758;2023-09-19T18:23:14;100827.34;;;16.74;100.00
78373;BME280;67656;52.074;4.758;2023-09-19T18:28:47;100833.91;;;16.84;100.00
78373;BME280;67656;52.074;4.758;2023-09-19T18:34:19;100851.03;;;16.80;100.00
78373;BME280;67656;52.074;4.758;2023-09-19T18:40:04;100849.47;;;16.92;100.00
78373;BME280;67656;52.074;4.758;2023-09-19T18:45:17;100853.63;;;16.98;100.00
78373;BME280;67656;52.074;4.758;2023-09-19T18:50:29;100848.25;;;16.99;100.00
78373;BME280;67656;52.074;4.758;2023-09-19T18:56:05;100837.88;;;16.93;100.00
78373;BME280;67656;52.074;4.758;2023-09-19T19:01:16;100846.59;;;16.97;100.00
78373;BME280;67656;52.074;4.758;2023-09-19T19:06:32;100833.09;;;17.16;100.00
78373;BME280;67656;52.074;4.758;2023-09-19T19:17:19;100813.66;;;17.30;100.00
78373;BME280;67656;52.074;4.758;2023-09-19T19:22:32;100830.25;;;17.03;100.00
78373;BME280;67656;52.074;4.758;2023-09-19T19:27:34;100831.88;;;17.06;100.00
78373;BME280;67656;52.074;4.758;2023-09-19T19:32:38;100811.25;;;17.09;100.00
78373;BME280;67656;52.074;4.758;2023-09-19T19:37:47;100829.00;;;17.26;100.00
78373;BME280;67656;52.074;4.758;2023-09-19T19:42:58;100823.19;;;17.34;100.00
78373;BME280;67656;52.074;4.758;2023-09-19T19:54:19;100836.19;;;17.40;100.00
78373;BME280;67656;52.074;4.758;2023-09-19T20:00:03;100850.31;;;17.26;100.00
78373;BME280;67656;52.074;4.758;2023-09-19T20:05:29;100853.75;;;17.28;100.00
78373;BME280;67656;52.074;4.758;2023-09-19T20:16:46;100854.44;;;17.48;100.00
78373;BME280;67656;52.074;4.758;2023-09-19T20:33:30;100852.72;;;17.31;100.00
78373;BME280;67656;52.074;4.758;2023-09-19T20:38:42;100845.25;;;17.38;100.00
78373;BME280;67656;52.074;4.758;2023-09-19T20:44:05;100850.47;;;17.39;100.00
78373;BME280;67656;52.074;4.758;2023-09-19T20:49:06;100839.94;;;17.52;100.00
78373;BME280;67656;52.074;4.758;2023-09-19T20:54:09;100829.78;;;17.59;100.00
78373;BME280;67656;52.074;4.758;2023-09-19T20:59:23;100816.19;;;17.63;100.00
78373;BME280;67656;52.074;4.758;2023-09-19T21:04:32;100820.81;;;17.76;100.00
78373;BME280;67656;52.074;4.758;2023-09-19T21:10:12;100829.50;;;17.79;100.00
78373;BME280;67656;52.074;4.758;2023-09-19T21:21:56;100804.16;;;17.87;100.00
78373;BME280;67656;52.074;4.758;2023-09-19T21:26:57;100818.22;;;17.74;100.00
78373;BME280;67656;52.074;4.758;2023-09-19T21:31:58;100827.38;;;17.70;100.00
78373;BME280;67656;52.074;4.758;2023-09-19T21:36:58;100822.28;;;17.65;100.00
78373;BME280;67656;52.074;4.758;2023-09-19T21:42:01;100809.31;;;17.59;100.00
78373;BME280;67656;52.074;4.758;2023-09-19T21:47:02;100813.19;;;17.54;100.00
78373;BME280;67656;52.074;4.758;2023-09-19T21:52:03;100806.03;;;17.70;100.00
78373;BME280;67656;52.074;4.758;2023-09-19T21:57:04;100804.38;;;17.68;100.00
78373;BME280;67656;52.074;4.758;2023-09-19T22:02:07;100792.25;;;17.92;100.00
78373;BME280;67656;52.074;4.758;2023-09-19T22:07:10;100780.78;;;17.90;100.00
78373;BME280;67656;52.074;4.758;2023-09-19T22:12:11;100778.41;;;18.02;100.00
78373;BME280;67656;52.074;4.758;2023-09-19T22:17:14;100777.81;;;18.11;100.00
78373;BME280;67656;52.074;4.758;2023-09-19T22:22:16;100770.28;;;18.03;100.00
78373;BME280;67656;52.074;4.758;2023-09-19T22:27:17;100784.88;;;18.12;100.00
78373;BME280;67656;52.074;4.758;2023-09-19T22:32:17;100764.56;;;18.09;100.00
78373;BME280;67656;52.074;4.758;2023-09-19T22:37:18;100778.81;;;18.24;100.00
78373;BME280;67656;52.074;4.758;2023-09-19T22:42:20;100776.59;;;18.31;100.00
78373;BME280;67656;52.074;4.758;2023-09-19T22:47:20;100788.34;;;18.14;100.00
78373;BME280;67656;52.074;4.758;2023-09-19T22:52:25;100770.69;;;18.26;100.00
78373;BME280;67656;52.074;4.758;2023-09-19T22:57:26;100781.19;;;18.29;100.00
78373;BME280;67656;52.074;4.758;2023-09-19T23:02:29;100785.47;;;18.32;100.00
78373;BME280;67656;52.074;4.758;2023-09-19T23:07:30;100773.72;;;18.34;100.00
78373;BME280;67656;52.074;4.758;2023-09-19T23:12:31;100781.97;;;18.46;100.00
78373;BME280;67656;52.074;4.758;2023-09-19T23:17:34;100774.91;;;18.45;100.00
78373;BME280;67656;52.074;4.758;2023-09-19T23:22:35;100785.59;;;18.45;100.00
78373;BME280;67656;52.074;4.758;2023-09-19T23:27:36;100781.38;;;18.40;100.00
78373;BME280;67656;52.074;4.758;2023-09-19T23:32:36;100779.84;;;18.51;100.00
78373;BME280;67656;52.074;4.758;2023-09-19T23:37:37;100781.38;;;18.55;100.00
78373;BME280;67656;52.074;4.758;2023-09-19T23:42:39;100790.16;;;18.57;100.00
78373;BME280;67656;52.074;4.758;2023-09-19T23:47:42;100786.53;;;18.58;100.00
78373;BME280;67656;52.074;4.758;2023-09-19T23:52:49;100776.81;;;18.42;100.00
78373;BME280;67656;52.074;4.758;2023-09-19T23:58:04;100791.88;;;18.58;100.00
